Time;durP1;ratioP1;P1;durP2;ratioP2;P2;SDS_P1;SDS_P2;PMS_P1;PMS_P2;Temp;Humidity;BMP_temperature;BMP_pressure;BME280_temperature;BME280_humidity;BME280_pressure;Samples;Min_cycle;Max_cycle;Signal;HPM_P1;HPM_P2
2023/03/07 00:09:52;;;;;;;0.80;0.80;;;2.70;92.30;;;;;;5069310;28;20303;-67
2023/03/07 00:19:51;;;;;;;3.78;3.40;;;2.60;92.20;;;;;;5071231;28;20205;-67
2023/03/07 00:23:14;;;;;;;0.88;0.88;;;2.60;92.10;;;;;;5051601;28;20212;-67
2023/03/07 00:29:40;;;;;;;1.88;1.00;;;2.60;92.30;;;;;;5050781;28;20234;-68
2023/03/07 00:39:54;;;;;;;0.68;0.65;;;2.40;99.00;;;;;;5050964;28;20633;-67
2023/03/07 00:54:07;;;;;;;0.73;0.73;;;2.60;91.80;;;;;;5070186;28;20669;-67
2023/03/07 01:00:16;;;;;;;2.47;0.65;;;2.60;91.80;;;;;;5070613;28;20217;-67
2023/03/07 01:02:43;;;;;;;2.03;1.10;;;2.60;91.50;;;;;;5070584;28;20235;-67
2023/03/07 01:09:25;;;;;;;1.17;1.17;;;2.60;91.50;;;;;;5069429;28;20241;-67
2023/03/07 01:15:33;;;;;;;2.60;1.42;;;2.60;91.40;;;;;;5071212;28;20176;-67
2023/03/07 01:29:25;;;;;;;1.27;0.93;;;2.50;98.40;;;;;;4987399;28;20253;-67
2023/03/07 01:39:53;;;;;;;3.22;1.15;;;2.50;91.20;;;;;;4911244;29;20652;-67
2023/03/07 01:42:57;;;;;;;1.50;1.40;;;2.50;91.10;;;;;;4911945;29;20196;-67
2023/03/07 01:52:57;;;;;;;2.03;1.67;;;2.40;90.70;;;;;;4873541;29;20225;-67
2023/03/07 01:55:36;;;;;;;1.02;1.02;;;2.40;90.80;;;;;;4882271;29;20552;-67
2023/03/07 01:58:42;;;;;;;1.70;0.88;;;2.40;90.70;;;;;;4873169;29;20257;-67
2023/03/07 02:05:08;;;;;;;0.90;0.50;;;2.40;90.90;;;;;;4921302;28;20183;-67
2023/03/07 02:14:54;;;;;;;1.33;1.17;;;1.90;97.90;;;;;;4988192;28;20194;-67
2023/03/07 02:25:19;;;;;;;1.20;1.13;;;2.50;90.80;;;;;;5048319;28;20216;-67
2023/03/07 02:28:43;;;;;;;2.45;1.02;;;2.50;94.20;;;;;;5050237;28;20280;-66
2023/03/07 02:34:55;;;;;;;0.85;0.85;;;2.50;90.80;;;;;;5048155;28;20180;-69
2023/03/07 02:45:17;;;;;;;0.65;0.65;;;2.40;90.90;;;;;;5087893;28;20189;-68
2023/03/07 02:48:41;;;;;;;5.10;1.33;;;2.40;90.90;;;;;;5090525;28;20228;-67
2023/03/07 02:54:55;;;;;;;2.67;2.47;;;2.40;90.80;;;;;;5087617;28;20183;-67
2023/03/07 02:57:59;;;;;;;0.40;0.40;;;2.40;90.70;;;;;;5089976;28;20691;-67
2023/03/07 03:04:53;;;;;;;0.75;0.75;;;2.40;90.90;;;;;;5072133;28;20207;-67
2023/03/07 03:14:43;;;;;;;1.75;1.65;;;2.30;90.90;;;;;;5074051;28;20213;-67
2023/03/07 03:24:32;;;;;;;1.02;1.00;;;2.30;90.80;;;;;;5073679;28;20225;-67
2023/03/07 03:34:26;;;;;;;0.40;0.40;;;2.30;90.80;;;;;;5070371;28;20650;-70
2023/03/07 03:37:59;;;;;;;1.10;0.77;;;2.30;90.90;;;;;;5030618;28;20694;-68
2023/03/07 03:40:32;;;;;;;2.58;1.67;;;2.40;90.90;;;;;;5009893;28;20261;-68
2023/03/07 03:43:27;;;;;;;1.13;1.02;;;2.40;91.00;;;;;;5011332;28;20746;-67
2023/03/07 03:49:43;;;;;;;4.60;1.45;;;2.50;90.70;;;;;;5027706;28;20223;-66
2023/03/07 03:59:40;;;;;;;1.13;1.13;;;2.60;90.80;;;;;;5029058;28;20219;-67
2023/03/07 04:03:04;;;;;;;4.68;1.63;;;2.60;90.80;;;;;;5030469;28;20208;-67
2023/03/07 04:09:42;;;;;;;4.50;1.30;;;2.60;90.80;;;;;;5070429;28;20233;-68
2023/03/07 04:13:02;;;;;;;2.35;2.10;;;2.60;90.70;;;;;;5072778;28;20909;-67
2023/03/07 04:19:43;;;;;;;6.78;2.25;;;2.60;90.60;;;;;;5071779;28;20582;-66
2023/03/07 04:30:11;;;;;;;2.35;0.73;;;2.40;98.60;;;;;;5068517;28;20434;-67
2023/03/07 04:33:00;;;;;;;2.30;2.20;;;2.30;90.50;;;;;;5072558;28;20262;-67
2023/03/07 04:54:12;;;;;;;1.65;1.52;;;2.50;90.50;;;;;;5070214;28;20207;-66
2023/03/07 05:00:20;;;;;;;2.00;0.93;;;2.60;90.60;;;;;;5070240;28;20238;-69
2023/03/07 05:03:06;;;;;;;5.50;1.33;;;2.60;90.30;;;;;;5071943;28;20234;-67
2023/03/07 05:09:28;;;;;;;1.10;0.82;;;2.60;90.20;;;;;;5066520;28;20202;-68
2023/03/07 05:15:36;;;;;;;1.23;1.23;;;2.60;90.50;;;;;;5070893;28;20230;-68
2023/03/07 05:18:03;;;;;;;0.75;0.75;;;2.60;90.40;;;;;;5071246;28;20235;-68
2023/03/07 05:35:23;;;;;;;11.70;1.23;;;2.60;90.00;;;;;;5068857;28;20589;-68
2023/03/07 05:37:50;;;;;;;1.48;0.98;;;2.60;89.50;;;;;;5070704;28;20587;-67
2023/03/07 05:40:18;;;;;;;1.98;1.27;;;2.30;97.40;;;;;;5069111;28;20227;-68
2023/03/07 05:43:03;;;;;;;3.72;1.13;;;2.60;89.70;;;;;;5070803;28;20716;-67
2023/03/07 05:45:36;;;;;;;1.08;0.47;;;2.70;89.90;;;;;;5070266;28;20271;-68
2023/03/07 05:48:03;;;;;;;1.48;0.90;;;2.70;89.60;;;;;;5070573;28;20223;-69
2023/03/07 05:50:38;;;;;;;1.33;1.27;;;2.60;89.90;;;;;;5069837;28;20191;-67
2023/03/07 06:03:20;;;;;;;1.70;1.67;;;2.60;88.40;;;;;;5071292;28;20178;-67
2023/03/07 06:09:54;;;;;;;3.45;2.35;;;2.60;88.10;;;;;;5065299;28;20633;-67
2023/03/07 06:13:01;;;;;;;5.50;2.33;;;2.30;97.40;;;;;;5070541;28;20251;-67
2023/03/07 06:19:10;;;;;;;2.42;1.77;;;2.70;88.20;;;;;;5066612;28;20227;-68
2023/03/07 06:40:18;;;;;;;9.25;4.10;;;2.70;87.30;;;;;;5068735;28;20296;-68
2023/03/07 06:43:03;;;;;;;1.15;1.15;;;2.60;87.10;;;;;;5070164;28;20581;-67
2023/03/07 06:45:37;;;;;;;1.02;1.02;;;2.70;87.70;;;;;;5069967;28;20270;-67
2023/03/07 06:48:19;;;;;;;1.80;1.70;;;2.60;87.40;;;;;;5069804;28;20707;-67
2023/03/07 06:55:13;;;;;;;2.95;1.52;;;2.70;86.90;;;;;;5065435;28;20252;-68
2023/03/07 06:58:20;;;;;;;1.77;1.67;;;2.70;87.40;;;;;;5067015;28;20529;-67
2023/03/07 07:04:30;;;;;;;0.60;0.40;;;2.80;87.20;;;;;;5068556;28;20557;-71
2023/03/07 07:06:58;;;;;;;5.57;1.58;;;2.90;86.60;;;;;;5076747;28;20521;-69
2023/03/07 07:09:27;;;;;;;1.38;0.68;;;3.00;87.50;;;;;;5075575;28;20421;-69
2023/03/07 07:11:55;;;;;;;2.88;1.05;;;3.00;87.50;;;;;;5075990;28;20268;-69
2023/03/07 07:14:25;;;;;;;5.50;2.13;;;3.10;87.00;;;;;;5075854;28;20187;-70
2023/03/07 07:16:53;;;;;;;1.10;1.00;;;3.10;86.40;;;;;;5074996;28;20218;-69
2023/03/07 07:19:20;;;;;;;2.00;1.58;;;3.20;87.10;;;;;;5067338;28;20223;-70
2023/03/07 07:21:48;;;;;;;2.15;1.15;;;3.20;87.20;;;;;;5068978;28;20300;-68
2023/03/07 07:24:15;;;;;;;0.65;0.65;;;3.40;86.60;;;;;;5068583;28;20270;-68
2023/03/07 07:26:42;;;;;;;0.50;0.43;;;3.30;85.20;;;;;;5068411;28;20306;-69
2023/03/07 07:29:09;;;;;;;0.85;0.73;;;3.30;97.20;;;;;;5067153;28;20196;-69
2023/03/07 07:31:36;;;;;;;0.60;0.40;;;3.30;86.00;;;;;;5068009;28;20708;-69
2023/03/07 07:34:03;;;;;;;3.08;1.05;;;3.40;85.90;;;;;;5068997;28;20195;-68
2023/03/07 07:36:30;;;;;;;0.40;0.40;;;4.50;86.80;;;;;;5068643;28;20578;-69
2023/03/07 07:38:59;;;;;;;2.65;1.60;;;3.50;85.70;;;;;;5067853;28;20222;-69
2023/03/07 07:41:25;;;;;;;0.68;0.68;;;3.50;86.00;;;;;;5071923;28;20234;-70
2023/03/07 07:43:53;;;;;;;1.20;1.10;;;3.60;85.70;;;;;;5069169;28;20290;-71
2023/03/07 07:46:20;;;;;;;0.90;0.90;;;3.60;85.30;;;;;;5070444;28;20727;-69
2023/03/07 07:48:48;;;;;;;0.95;0.85;;;3.50;85.00;;;;;;5071546;28;20213;-69
2023/03/07 07:51:17;;;;;;;2.42;1.83;;;3.60;85.10;;;;;;5071937;28;20235;-69
2023/03/07 07:53:44;;;;;;;4.15;0.82;;;3.70;85.90;;;;;;5072057;28;20234;-69
2023/03/07 07:56:12;;;;;;;4.47;1.35;;;3.90;96.60;;;;;;5066720;28;20298;-69
2023/03/07 07:58:39;;;;;;;2.03;1.48;;;3.80;85.10;;;;;;5056079;28;20215;-69
2023/03/07 08:01:15;;;;;;;1.42;1.30;;;3.90;85.30;;;;;;5058930;28;20707;-69
2023/03/07 08:03:42;;;;;;;2.50;1.05;;;3.90;85.50;;;;;;5071707;28;20652;-71
2023/03/07 08:06:09;;;;;;;1.13;1.05;;;4.00;85.30;;;;;;5067285;28;20222;-70
2023/03/07 08:08:36;;;;;;;2.72;2.47;;;3.90;91.70;;;;;;5070537;28;20184;-70
2023/03/07 08:11:03;;;;;;;0.98;0.77;;;6.80;94.70;;;;;;5071187;28;20313;-69
2023/03/07 08:13:33;;;;;;;0.45;0.45;;;4.10;85.80;;;;;;5070819;28;20563;-69
2023/03/07 08:20:21;;;;;;;1.60;0.55;;;4.30;84.20;;;;;;5068835;28;20273;-67
2023/03/07 08:23:31;;;;;;;1.73;0.70;;;4.30;83.40;;;;;;5071964;28;20250;-67
2023/03/07 08:33:06;;;;;;;0.77;0.35;;;4.60;83.70;;;;;;5068339;28;20288;-67
2023/03/07 08:35:33;;;;;;;3.22;1.50;;;4.40;82.00;;;;;;5071495;28;20219;-70
2023/03/07 08:49:32;;;;;;;1.50;0.80;;;4.60;81.60;;;;;;5070492;28;20268;-69
2023/03/07 08:59:30;;;;;;;1.45;0.98;;;4.90;95.00;;;;;;5070020;28;20581;-68
2023/03/07 09:05:40;;;;;;;0.85;0.73;;;4.80;79.60;;;;;;5070993;28;20510;-68
2023/03/07 09:08:07;;;;;;;0.65;0.65;;;5.00;89.10;;;;;;5070550;28;20297;-68
2023/03/07 09:10:40;;;;;;;0.60;0.60;;;5.00;79.00;;;;;;5070802;28;20600;-69
2023/03/07 09:13:06;;;;;;;1.10;0.95;;;5.10;80.00;;;;;;5070736;28;20298;-69
2023/03/07 09:19:45;;;;;;;0.75;0.50;;;5.50;92.60;;;;;;5069628;28;20234;-67
2023/03/07 09:22:53;;;;;;;0.90;0.90;;;5.30;75.10;;;;;;5071105;28;20223;-67
2023/03/07 09:25:27;;;;;;;2.47;1.38;;;5.30;74.20;;;;;;5068616;28;20209;-67
2023/03/07 09:28:21;;;;;;;1.98;0.60;;;5.50;86.20;;;;;;5070840;28;20208;-68
2023/03/07 09:34:48;;;;;;;0.82;0.50;;;5.50;93.80;;;;;;5070699;28;20198;-68
2023/03/07 09:38:05;;;;;;;1.73;0.63;;;5.40;76.60;;;;;;5070814;28;20226;-68
2023/03/07 09:44:58;;;;;;;1.85;0.68;;;5.10;73.60;;;;;;5067812;28;20227;-67
2023/03/07 09:55:15;;;;;;;0.50;0.40;;;4.50;92.40;;;;;;5007500;28;20180;-66
2023/03/07 09:58:24;;;;;;;1.05;0.98;;;4.70;74.90;;;;;;5007850;28;20259;-67
2023/03/07 10:01:00;;;;;;;1.23;1.13;;;4.80;76.00;;;;;;5007133;28;20573;-68
2023/03/07 10:06:59;;;;;;;3.22;1.45;;;4.80;76.80;;;;;;5070090;28;20187;-70
2023/03/07 10:09:31;;;;;;;4.72;1.05;;;4.50;86.00;;;;;;5065938;28;20209;-68
2023/03/07 10:23:23;;;;;;;0.95;0.95;;;4.70;76.50;;;;;;5006350;28;20221;-70
2023/03/07 10:25:53;;;;;;;1.75;0.85;;;4.70;77.00;;;;;;4997694;28;20709;-70
2023/03/07 10:28:26;;;;;;;0.95;0.80;;;4.60;92.50;;;;;;5050723;28;20199;-69
2023/03/07 10:31:01;;;;;;;2.03;1.02;;;5.00;92.90;;;;;;5069099;28;20219;-69
2023/03/07 10:33:30;;;;;;;3.78;1.48;;;4.60;76.50;;;;;;5068246;28;20203;-69
2023/03/07 10:36:06;;;;;;;2.45;2.25;;;4.50;76.70;;;;;;5068900;28;20211;-70
2023/03/07 10:38:43;;;;;;;0.50;0.50;;;4.30;86.60;;;;;;5066950;28;20542;-69
2023/03/07 10:41:15;;;;;;;1.50;1.40;;;4.40;76.70;;;;;;5070124;28;20235;-69
2023/03/07 10:43:45;;;;;;;0.60;0.52;;;4.60;78.10;;;;;;5068985;28;20195;-70
2023/03/07 10:46:14;;;;;;;2.50;1.52;;;4.70;77.10;;;;;;5068303;28;20221;-69
2023/03/07 10:48:46;;;;;;;1.15;1.10;;;4.60;92.60;;;;;;5068126;28;20696;-72
2023/03/07 10:51:29;;;;;;;1.60;1.52;;;4.30;92.90;;;;;;5067935;28;20302;-68
2023/03/07 10:54:49;;;;;;;0.40;0.40;;;4.40;76.00;;;;;;5069190;28;20198;-67
2023/03/07 11:05:26;;;;;;;1.90;1.20;;;4.50;89.30;;;;;;5066373;28;20718;-66
2023/03/07 11:08:46;;;;;;;1.40;1.30;;;4.70;92.70;;;;;;5069359;28;20712;-66
2023/03/07 11:15:27;;;;;;;6.78;0.60;;;4.50;93.00;;;;;;5075772;28;20187;-66
2023/03/07 11:17:56;;;;;;;0.35;0.35;;;4.60;94.20;;;;;;5068956;28;20288;-69
2023/03/07 11:28:34;;;;;;;1.35;0.50;;;4.60;73.00;;;;;;5072929;28;20207;-66
2023/03/07 11:53:51;;;;;;;1.40;0.90;;;4.30;69.80;;;;;;5071063;28;20184;-67
2023/03/07 12:23:37;;;;;;;1.40;0.88;;;4.40;91.90;;;;;;4857058;29;20239;-67
2023/03/07 12:43:36;;;;;;;0.50;0.40;;;5.10;91.00;;;;;;4985411;28;20206;-67
2023/03/07 12:49:54;;;;;;;0.80;0.80;;;5.20;69.00;;;;;;5008068;28;20290;-69
2023/03/07 12:52:31;;;;;;;2.03;0.95;;;5.20;69.10;;;;;;5035288;28;20234;-68
2023/03/07 12:59:01;;;;;;;0.77;0.77;;;5.10;89.80;;;;;;5052474;28;20180;-67
2023/03/07 13:01:54;;;;;;;0.95;0.80;;;5.20;69.30;;;;;;5070797;28;20251;-69
2023/03/07 13:04:32;;;;;;;1.17;1.13;;;6.00;89.40;;;;;;5071196;28;20294;-69
2023/03/07 13:10:45;;;;;;;0.90;0.90;;;5.30;67.30;;;;;;5091037;28;20205;-69
2023/03/07 13:13:45;;;;;;;1.75;1.15;;;5.10;66.90;;;;;;5071250;28;20194;-70
2023/03/07 13:16:36;;;;;;;0.68;0.68;;;5.10;67.50;;;;;;5070096;28;20548;-69
2023/03/07 13:38:12;;;;;;;2.65;2.25;;;5.60;67.10;;;;;;5069777;28;20610;-68
2023/03/07 13:45:18;;;;;;;1.08;0.68;;;5.70;65.30;;;;;;4986677;28;20210;-67
2023/03/07 13:51:19;;;;;;;2.95;1.00;;;5.70;83.20;;;;;;4980216;28;20251;-68
2023/03/07 13:53:49;;;;;;;1.98;0.77;;;5.60;66.50;;;;;;5002433;28;20598;-69
2023/03/07 13:56:28;;;;;;;4.80;1.50;;;5.70;65.90;;;;;;5065172;28;20211;-68
2023/03/07 13:59:00;;;;;;;0.75;0.60;;;5.60;64.80;;;;;;5077322;28;20582;-69
2023/03/07 14:01:31;;;;;;;1.33;1.00;;;5.80;66.50;;;;;;5069801;28;20230;-69
2023/03/07 14:04:05;;;;;;;0.73;0.50;;;5.80;67.50;;;;;;5070475;28;20274;-68
2023/03/07 14:06:36;;;;;;;0.93;0.90;;;5.90;66.30;;;;;;5070217;28;20231;-69
2023/03/07 14:09:10;;;;;;;0.40;0.30;;;5.60;74.00;;;;;;5069402;28;20546;-68
2023/03/07 14:11:45;;;;;;;1.20;1.10;;;5.60;66.20;;;;;;5058293;28;20222;-69
2023/03/07 14:14:32;;;;;;;0.95;0.85;;;5.70;66.20;;;;;;5070033;28;20187;-69
2023/03/07 14:17:13;;;;;;;3.58;0.90;;;5.60;65.30;;;;;;5070075;28;20297;-69
2023/03/07 14:19:54;;;;;;;0.70;0.70;;;5.60;66.50;;;;;;5069991;28;20190;-69
2023/03/07 14:22:40;;;;;;;2.58;1.25;;;5.70;65.90;;;;;;5069201;28;20580;-69
2023/03/07 14:25:24;;;;;;;0.40;0.40;;;5.80;85.90;;;;;;5069657;28;20191;-70
2023/03/07 14:27:54;;;;;;;0.70;0.70;;;5.60;83.80;;;;;;5068310;28;20286;-69
2023/03/07 14:30:23;;;;;;;3.33;1.80;;;5.70;65.90;;;;;;5069601;28;20187;-69
2023/03/07 14:32:52;;;;;;;4.72;0.70;;;5.70;65.50;;;;;;5069817;28;20200;-69
2023/03/07 14:35:37;;;;;;;1.80;0.60;;;5.70;66.70;;;;;;5068788;28;20278;-70
2023/03/07 14:38:10;;;;;;;0.55;0.52;;;5.80;65.30;;;;;;5058369;28;20203;-69
2023/03/07 14:40:51;;;;;;;3.83;1.92;;;5.90;65.60;;;;;;5078879;28;20704;-69
2023/03/07 14:50:47;;;;;;;2.28;2.10;;;7.60;80.20;;;;;;5066057;28;20199;-67
2023/03/07 14:53:52;;;;;;;0.82;0.82;;;7.70;62.40;;;;;;5069648;28;20207;-67
2023/03/07 15:04:52;;;;;;;0.97;0.70;;;7.90;62.20;;;;;;5072267;28;20613;-68
2023/03/07 17:42:04;;;;;;;2.03;0.73;;;4.00;72.20;;;;;;5086231;28;21101;-66
2023/03/07 17:44:31;;;;;;;0.40;0.30;;;4.40;68.90;;;;;;5088012;28;20195;-65
2023/03/07 17:46:59;;;;;;;0.95;0.95;;;4.40;85.30;;;;;;5087353;28;20593;-67
2023/03/07 17:49:31;;;;;;;1.08;0.95;;;4.40;69.40;;;;;;5086156;28;20194;-67
2023/03/07 17:51:58;;;;;;;1.02;0.98;;;4.40;69.30;;;;;;5086247;28;20225;-66
2023/03/07 17:54:24;;;;;;;1.38;1.17;;;4.40;69.90;;;;;;5087360;28;20195;-68
2023/03/07 17:56:51;;;;;;;1.58;0.98;;;4.30;69.70;;;;;;5087189;28;20229;-65
2023/03/07 17:59:19;;;;;;;1.17;0.80;;;4.20;70.20;;;;;;5085904;28;20199;-66
2023/03/07 18:01:46;;;;;;;0.50;0.50;;;4.10;70.10;;;;;;5086269;28;20226;-66
2023/03/07 18:04:13;;;;;;;2.80;1.73;;;4.00;70.90;;;;;;5087036;28;20209;-66
2023/03/07 18:06:40;;;;;;;2.38;0.43;;;4.10;90.30;;;;;;5086421;28;20226;-66
2023/03/07 18:09:08;;;;;;;0.93;0.75;;;4.10;70.30;;;;;;5085412;28;20195;-65
2023/03/07 18:11:35;;;;;;;1.42;1.25;;;4.10;70.70;;;;;;5086387;28;20218;-66
2023/03/07 18:14:02;;;;;;;1.05;1.05;;;4.00;71.30;;;;;;5086638;28;20191;-66
2023/03/07 18:16:31;;;;;;;1.80;0.43;;;4.00;71.20;;;;;;5085641;28;20272;-66
2023/03/07 18:18:58;;;;;;;0.77;0.73;;;;;;;;;;5085426;28;20203;-66
2023/03/07 18:21:25;;;;;;;2.10;0.88;;;;;;;;;;5085832;28;20280;-67
2023/03/07 18:23:52;;;;;;;0.63;0.52;;;4.60;83.80;;;;;;5084668;28;20285;-66
2023/03/07 18:26:21;;;;;;;1.65;1.30;;;4.20;70.50;;;;;;5084951;28;20214;-66
2023/03/07 18:28:49;;;;;;;1.02;0.70;;;4.30;73.80;;;;;;5085837;28;20198;-66
2023/03/07 18:31:17;;;;;;;0.85;0.85;;;4.90;91.30;;;;;;5085676;28;20229;-66
2023/03/07 18:33:49;;;;;;;2.55;1.73;;;4.20;89.60;;;;;;5085929;28;20205;-66
2023/03/07 18:36:17;;;;;;;0.98;0.90;;;4.20;71.00;;;;;;5086712;28;20219;-66
2023/03/07 18:38:44;;;;;;;0.40;0.30;;;4.30;92.80;;;;;;5085383;28;20199;-65
2023/03/07 18:41:13;;;;;;;0.88;0.88;;;4.10;92.40;;;;;;5085500;28;20230;-66
2023/03/07 18:43:40;;;;;;;0.80;0.80;;;3.70;92.60;;;;;;5086242;28;20195;-65
2023/03/07 18:46:09;;;;;;;1.08;0.85;;;4.20;87.60;;;;;;5085723;28;20305;-66
2023/03/07 18:48:36;;;;;;;1.75;0.63;;;4.50;86.50;;;;;;5085391;28;20293;-66
2023/03/07 18:51:06;;;;;;;0.70;0.70;;;4.40;86.40;;;;;;5085530;28;20222;-66
2023/03/07 18:53:34;;;;;;;1.95;0.93;;;3.80;91.30;;;;;;5065256;28;20203;-66
2023/03/07 18:56:02;;;;;;;1.10;1.10;;;4.30;71.00;;;;;;5070442;28;20221;-65
2023/03/07 18:58:29;;;;;;;1.58;1.20;;;4.30;90.00;;;;;;5061630;28;20201;-67
2023/03/07 19:00:56;;;;;;;0.88;0.77;;;4.10;92.20;;;;;;5071561;28;20231;-66
2023/03/07 19:03:23;;;;;;;0.63;0.63;;;4.30;71.50;;;;;;5072723;28;20281;-67
2023/03/07 19:05:50;;;;;;;1.38;1.27;;;4.50;86.90;;;;;;5072039;28;20227;-66
2023/03/07 19:08:18;;;;;;;2.20;0.88;;;4.30;84.00;;;;;;5071716;28;20204;-66
2023/03/07 19:10:45;;;;;;;0.80;0.68;;;4.40;94.00;;;;;;5071617;28;20223;-66
2023/03/07 19:13:12;;;;;;;0.38;0.38;;;;;;;;;;5071976;28;20302;-67
2023/03/07 19:15:39;;;;;;;0.45;0.45;;;;;;;;;;5074525;28;20206;-66
2023/03/07 19:18:06;;;;;;;2.22;1.15;;;4.40;70.90;;;;;;5091655;28;20248;-67
2023/03/07 19:20:33;;;;;;;1.73;1.00;;;4.40;71.70;;;;;;5085529;28;20235;-66
2023/03/07 19:22:59;;;;;;;0.85;0.57;;;4.30;94.20;;;;;;5072113;28;20691;-65
2023/03/07 19:25:29;;;;;;;1.20;1.10;;;4.40;91.40;;;;;;5071519;28;20310;-67
2023/03/07 19:27:56;;;;;;;0.43;0.40;;;4.20;72.00;;;;;;5071343;28;20206;-66
2023/03/07 19:30:23;;;;;;;5.22;1.10;;;4.50;91.60;;;;;;5070472;28;20191;-66
2023/03/07 19:32:50;;;;;;;2.35;2.25;;;4.30;72.10;;;;;;5071969;28;20214;-67
2023/03/07 19:35:17;;;;;;;3.60;1.83;;;4.40;71.80;;;;;;5071297;28;20401;-66
2023/03/07 19:37:43;;;;;;;1.52;1.42;;;4.40;72.20;;;;;;5070373;28;20222;-66
2023/03/07 19:40:12;;;;;;;4.60;1.65;;;4.10;88.30;;;;;;5072283;28;20206;-66
2023/03/07 19:42:40;;;;;;;5.85;2.20;;;4.50;91.50;;;;;;5071193;28;20195;-66
2023/03/07 19:45:08;;;;;;;2.88;0.80;;;4.30;72.60;;;;;;5071137;28;20203;-67
2023/03/07 19:47:35;;;;;;;3.72;1.67;;;4.10;90.10;;;;;;5071680;28;20202;-67
2023/03/07 19:50:02;;;;;;;2.13;1.35;;;4.20;72.10;;;;;;5070388;28;20206;-66
2023/03/07 19:52:29;;;;;;;2.67;0.80;;;4.30;72.70;;;;;;5068925;28;20264;-66
2023/03/07 19:54:55;;;;;;;2.20;1.70;;;4.30;72.00;;;;;;5070588;28;20195;-66
2023/03/07 19:57:22;;;;;;;0.40;0.40;;;4.30;71.70;;;;;;5070031;28;20211;-66
2023/03/07 19:59:55;;;;;;;1.10;1.00;;;4.30;72.30;;;;;;5069880;28;20196;-66
2023/03/07 20:02:22;;;;;;;1.50;0.70;;;4.30;72.40;;;;;;5068163;28;20324;-66
2023/03/07 20:04:49;;;;;;;0.50;0.50;;;4.30;72.20;;;;;;5069819;28;20201;-66
2023/03/07 20:07:16;;;;;;;3.13;1.95;;;4.20;72.30;;;;;;5070391;28;20294;-66
2023/03/07 20:09:43;;;;;;;0.50;0.40;;;4.00;72.80;;;;;;5069862;28;20662;-66
2023/03/07 20:12:10;;;;;;;3.30;1.15;;;4.10;72.00;;;;;;5068329;28;20221;-66
2023/03/07 20:14:41;;;;;;;0.70;0.70;;;4.10;72.90;;;;;;5070312;28;20206;-66
2023/03/07 20:17:10;;;;;;;0.95;0.85;;;3.80;83.00;;;;;;5070993;28;20254;-66
2023/03/07 20:19:37;;;;;;;1.73;1.30;;;4.00;73.10;;;;;;5069648;28;20194;-65
2023/03/07 20:22:04;;;;;;;3.42;1.13;;;4.00;72.20;;;;;;5069064;28;20219;-66
2023/03/07 20:24:31;;;;;;;11.52;1.30;;;4.10;72.90;;;;;;5070786;28;20191;-68
2023/03/07 20:26:58;;;;;;;1.52;1.42;;;4.00;72.30;;;;;;5070339;28;20263;-66
2023/03/07 20:29:25;;;;;;;1.02;0.98;;;4.00;72.50;;;;;;5069568;28;20204;-66
2023/03/07 20:31:53;;;;;;;0.40;0.40;;;4.00;72.30;;;;;;5069969;28;20321;-65
2023/03/07 20:34:22;;;;;;;1.40;1.30;;;4.10;71.50;;;;;;5070445;28;20224;-67
2023/03/07 20:36:49;;;;;;;3.70;0.45;;;4.00;71.90;;;;;;5061113;28;20954;-68
2023/03/07 20:39:15;;;;;;;0.30;0.30;;;4.80;90.90;;;;;;5065087;28;20274;-68
2023/03/07 20:41:43;;;;;;;0.35;0.35;;;4.20;89.30;;;;;;5066187;28;20323;-68
2023/03/07 20:44:11;;;;;;;0.35;0.35;;;4.10;70.70;;;;;;5066343;28;20202;-68
2023/03/07 20:46:38;;;;;;;0.80;0.45;;;4.10;70.50;;;;;;5064553;28;20226;-66
2023/03/07 20:49:05;;;;;;;1.00;0.40;;;4.80;91.00;;;;;;5072632;28;20282;-66
2023/03/07 20:51:36;;;;;;;3.33;2.03;;;4.20;70.20;;;;;;5069794;28;20223;-66
2023/03/07 20:54:05;;;;;;;0.70;0.70;;;4.10;70.40;;;;;;5069811;28;20199;-67
2023/03/07 20:56:34;;;;;;;4.10;0.65;;;4.00;80.60;;;;;;5069189;28;20219;-67
2023/03/07 20:59:02;;;;;;;0.40;0.40;;;5.50;70.70;;;;;;5066694;28;20195;-67
2023/03/07 21:01:30;;;;;;;1.10;0.65;;;4.30;81.10;;;;;;5074650;28;20226;-67
2023/03/07 21:04:04;;;;;;;1.40;1.30;;;4.10;81.00;;;;;;5066498;28;20205;-67
2023/03/07 21:06:33;;;;;;;1.10;0.98;;;4.20;68.10;;;;;;5064785;28;20302;-67
2023/03/07 21:09:00;;;;;;;1.55;1.45;;;4.30;68.00;;;;;;5066706;28;20200;-67
2023/03/07 21:11:53;;;;;;;0.88;0.68;;;4.40;81.20;;;;;;5067164;28;20223;-68
2023/03/07 21:14:20;;;;;;;0.75;0.75;;;4.40;78.60;;;;;;5062893;28;20195;-67
2023/03/07 21:16:47;;;;;;;0.82;0.82;;;4.30;67.20;;;;;;5065871;28;20250;-66
2023/03/07 21:19:14;;;;;;;0.60;0.50;;;5.10;88.70;;;;;;5066132;28;20199;-68
2023/03/07 21:21:42;;;;;;;1.30;0.75;;;4.40;67.50;;;;;;5065947;28;20227;-69
2023/03/07 21:24:11;;;;;;;0.73;0.73;;;4.40;67.90;;;;;;5067374;28;20201;-68
2023/03/07 21:26:39;;;;;;;0.88;0.88;;;4.20;88.10;;;;;;5067340;28;20550;-69
2023/03/07 21:29:07;;;;;;;2.25;0.65;;;4.40;68.60;;;;;;5068475;28;20286;-69
2023/03/07 21:31:35;;;;;;;1.52;1.20;;;4.50;68.30;;;;;;5068964;28;20219;-69
2023/03/07 21:34:04;;;;;;;0.40;0.40;;;4.40;67.60;;;;;;5069590;28;20199;-68
2023/03/07 21:36:32;;;;;;;1.25;0.52;;;4.30;67.60;;;;;;5069604;28;20226;-69
2023/03/07 21:39:01;;;;;;;0.60;0.60;;;4.30;67.80;;;;;;5069254;28;20545;-70
2023/03/07 21:41:28;;;;;;;1.02;0.85;;;4.30;68.80;;;;;;5069018;28;20268;-69
2023/03/07 21:43:59;;;;;;;0.93;0.85;;;4.40;68.40;;;;;;5069694;28;20286;-72
2023/03/07 21:46:26;;;;;;;1.02;0.52;;;4.40;68.50;;;;;;5068999;28;20282;-70
2023/03/07 21:49:06;;;;;;;0.52;0.52;;;4.40;68.20;;;;;;5068928;28;20187;-71
2023/03/07 21:51:42;;;;;;;1.05;1.00;;;4.40;67.80;;;;;;5068465;28;20288;-71
2023/03/07 21:54:25;;;;;;;0.60;0.60;;;4.50;67.90;;;;;;5070388;28;20673;-70
2023/03/07 21:56:57;;;;;;;0.45;0.45;;;4.40;67.80;;;;;;5069693;28;20226;-70
2023/03/07 21:59:26;;;;;;;0.40;0.40;;;4.30;88.50;;;;;;5068327;28;20190;-69
2023/03/07 22:02:03;;;;;;;0.75;0.75;;;4.30;68.00;;;;;;5068930;28;20226;-71
2023/03/07 22:04:41;;;;;;;0.60;0.50;;;4.40;68.30;;;;;;5070437;28;20206;-70
2023/03/07 22:07:09;;;;;;;0.90;0.90;;;4.40;68.00;;;;;;5069345;28;20230;-70
2023/03/07 22:09:51;;;;;;;0.63;0.63;;;4.40;68.00;;;;;;5069229;28;20195;-70
2023/03/07 22:12:30;;;;;;;0.40;0.35;;;4.30;90.00;;;;;;5069166;28;20230;-72
2023/03/07 22:14:59;;;;;;;0.80;0.60;;;4.30;68.40;;;;;;5061611;28;20666;-69
2023/03/07 22:17:36;;;;;;;0.60;0.60;;;4.20;88.00;;;;;;5055028;28;20231;-71
2023/03/07 22:20:07;;;;;;;1.17;1.08;;;4.50;90.20;;;;;;5065896;28;20283;-71
2023/03/07 22:22:34;;;;;;;6.35;1.92;;;4.00;80.10;;;;;;5069173;28;20226;-69
2023/03/07 22:25:16;;;;;;;2.05;0.55;;;4.40;90.50;;;;;;5053418;28;20192;-71
2023/03/07 22:27:48;;;;;;;0.85;0.85;;;4.70;68.90;;;;;;5071882;28;20207;-69
2023/03/07 22:30:15;;;;;;;0.80;0.38;;;4.30;68.50;;;;;;5072640;28;20274;-69
2023/03/07 22:32:51;;;;;;;1.00;0.90;;;4.20;67.90;;;;;;5072863;28;20669;-71
2023/03/07 22:35:33;;;;;;;1.00;0.77;;;4.40;84.70;;;;;;5074097;28;20198;-70
2023/03/07 22:38:05;;;;;;;1.60;0.57;;;;;;;;;;5073107;28;20256;-69
2023/03/07 22:40:47;;;;;;;2.47;1.25;;;4.30;82.00;;;;;;5072408;28;20227;-71
2023/03/07 22:43:24;;;;;;;1.10;0.90;;;4.90;83.40;;;;;;5072463;28;20684;-71
2023/03/07 22:45:54;;;;;;;1.33;0.82;;;4.00;91.10;;;;;;5072822;28;20215;-68
2023/03/07 22:48:20;;;;;;;0.60;0.60;;;4.40;77.00;;;;;;5072553;28;20193;-68
2023/03/07 22:50:47;;;;;;;0.95;0.95;;;4.20;90.60;;;;;;5072064;28;20218;-68
2023/03/07 22:53:14;;;;;;;0.35;0.32;;;4.00;92.30;;;;;;5072681;28;20203;-68
2023/03/07 22:55:43;;;;;;;1.95;1.85;;;4.00;91.80;;;;;;5070741;28;20218;-67
2023/03/07 22:58:11;;;;;;;5.40;2.45;;;3.80;84.10;;;;;;5070495;28;21662;-67
2023/03/07 23:00:40;;;;;;;2.83;1.13;;;3.80;85.30;;;;;;5071587;28;20215;-67
2023/03/07 23:03:07;;;;;;;1.02;0.73;;;4.10;92.80;;;;;;5072764;28;20223;-66
2023/03/07 23:05:34;;;;;;;2.10;1.45;;;3.80;89.40;;;;;;5072534;28;20297;-67
2023/03/07 23:08:02;;;;;;;1.40;1.27;;;3.50;91.60;;;;;;5072930;28;20210;-66
2023/03/07 23:10:29;;;;;;;1.33;1.23;;;4.00;70.70;;;;;;5072214;28;20269;-67
2023/03/07 23:12:58;;;;;;;0.57;0.57;;;3.70;85.20;;;;;;5071894;28;20199;-67
2023/03/07 23:15:25;;;;;;;0.75;0.45;;;4.00;70.30;;;;;;5072743;28;20227;-67
2023/03/07 23:17:53;;;;;;;2.10;1.02;;;3.90;70.80;;;;;;5072452;28;20192;-66
2023/03/07 23:20:24;;;;;;;1.13;0.90;;;3.90;71.30;;;;;;5072266;28;20199;-67
2023/03/07 23:22:51;;;;;;;1.88;1.10;;;3.90;71.50;;;;;;5072166;28;20226;-66
2023/03/07 23:25:18;;;;;;;0.93;0.80;;;3.80;90.60;;;;;;5071652;28;20195;-67
2023/03/07 23:27:44;;;;;;;3.90;1.02;;;3.80;71.50;;;;;;5072134;28;20650;-67
2023/03/07 23:30:13;;;;;;;2.60;1.55;;;3.90;71.60;;;;;;5071787;28;20200;-67
2023/03/07 23:32:40;;;;;;;3.13;2.13;;;3.60;91.30;;;;;;5072071;28;20199;-67
2023/03/07 23:35:07;;;;;;;0.93;0.88;;;;;;;;;;5072031;28;20207;-66
2023/03/07 23:37:34;;;;;;;0.68;0.65;;;3.70;71.40;;;;;;5072270;28;20195;-67
2023/03/07 23:40:01;;;;;;;2.75;1.60;;;3.60;72.50;;;;;;5071358;28;20217;-67
2023/03/07 23:42:28;;;;;;;4.22;2.00;;;3.60;73.00;;;;;;5071478;28;20326;-67
2023/03/07 23:44:55;;;;;;;1.63;1.38;;;3.50;72.90;;;;;;5072019;28;20203;-67
2023/03/07 23:47:23;;;;;;;2.75;1.70;;;3.50;73.10;;;;;;5072369;28;20231;-66
2023/03/07 23:49:49;;;;;;;0.50;0.50;;;3.20;85.50;;;;;;5071585;28;20290;-67